sensor_id;sensor_type;location;lat;lon;timestamp;pressure;altitude;pressure_sealevel;temperature;humidity
37200;BME280;23096;50.892;16.746;2023-05-08T00:01:59;100363.08;;;5.03;71.35
37200;BME280;23096;50.892;16.746;2023-05-08T00:04:25;100366.29;;;4.99;71.15
37200;BME280;23096;50.892;16.746;2023-05-08T00:06:50;100363.19;;;4.94;71.26
37200;BME280;23096;50.892;16.746;2023-05-08T00:09:18;100367.41;;;4.92;71.30
37200;BME280;23096;50.892;16.746;2023-05-08T00:11:44;100360.73;;;4.87;71.31
37200;BME280;23096;50.892;16.746;2023-05-08T00:14:09;100360.20;;;4.84;71.33
37200;BME280;23096;50.892;16.746;2023-05-08T00:16:35;100363.06;;;4.80;71.42
37200;BME280;23096;50.892;16.746;2023-05-08T00:19:01;100359.30;;;4.78;71.45
37200;BME280;23096;50.892;16.746;2023-05-08T00:21:27;100358.92;;;4.75;71.39
37200;BME280;23096;50.892;16.746;2023-05-08T00:23:52;100356.69;;;4.73;71.50
37200;BME280;23096;50.892;16.746;2023-05-08T00:26:18;100358.20;;;4.72;71.48
37200;BME280;23096;50.892;16.746;2023-05-08T00:28:43;100358.52;;;4.69;71.63
37200;BME280;23096;50.892;16.746;2023-05-08T00:31:09;100356.95;;;4.64;71.68
37200;BME280;23096;50.892;16.746;2023-05-08T00:33:34;100353.84;;;4.59;71.52
37200;BME280;23096;50.892;16.746;2023-05-08T00:36:01;100350.58;;;4.57;71.72
37200;BME280;23096;50.892;16.746;2023-05-08T00:38:30;100349.86;;;4.54;71.70
37200;BME280;23096;50.892;16.746;2023-05-08T00:40:55;100346.39;;;4.49;71.78
37200;BME280;23096;50.892;16.746;2023-05-08T00:43:21;100347.40;;;4.46;71.77
37200;BME280;23096;50.892;16.746;2023-05-08T00:45:50;100345.48;;;4.43;71.76
37200;BME280;23096;50.892;16.746;2023-05-08T00:48:17;100346.32;;;4.40;71.83
37200;BME280;23096;50.892;16.746;2023-05-08T00:50:43;100350.37;;;4.37;71.97
37200;BME280;23096;50.892;16.746;2023-05-08T00:53:10;100354.94;;;4.35;71.92
37200;BME280;23096;50.892;16.746;2023-05-08T00:55:36;100348.95;;;4.32;71.82
37200;BME280;23096;50.892;16.746;2023-05-08T00:58:02;100349.60;;;4.29;71.90
37200;BME280;23096;50.892;16.746;2023-05-08T01:00:28;100353.31;;;4.28;71.99
37200;BME280;23096;50.892;16.746;2023-05-08T01:02:53;100353.14;;;4.26;71.95
37200;BME280;23096;50.892;16.746;2023-05-08T01:05:19;100349.69;;;4.23;71.97
37200;BME280;23096;50.892;16.746;2023-05-08T01:07:44;100356.31;;;4.21;72.07
37200;BME280;23096;50.892;16.746;2023-05-08T01:10:10;100361.23;;;4.21;72.17
37200;BME280;23096;50.892;16.746;2023-05-08T01:15:32;100360.17;;;4.17;72.20
37200;BME280;23096;50.892;16.746;2023-05-08T01:20:45;100360.80;;;4.13;72.24
37200;BME280;23096;50.892;16.746;2023-05-08T01:31:24;100360.13;;;3.99;72.30
37200;BME280;23096;50.892;16.746;2023-05-08T01:34:05;100361.64;;;3.98;72.37
37200;BME280;23096;50.892;16.746;2023-05-08T01:36:40;100362.98;;;3.96;72.44
37200;BME280;23096;50.892;16.746;2023-05-08T01:39:18;100364.63;;;3.93;72.38
37200;BME280;23096;50.892;16.746;2023-05-08T01:41:49;100366.64;;;3.90;72.28
37200;BME280;23096;50.892;16.746;2023-05-08T01:44:20;100368.66;;;3.89;72.48
37200;BME280;23096;50.892;16.746;2023-05-08T01:46:49;100366.59;;;3.87;72.42
37200;BME280;23096;50.892;16.746;2023-05-08T01:49:48;100367.41;;;3.85;72.46
37200;BME280;23096;50.892;16.746;2023-05-08T01:52:20;100367.73;;;3.83;72.50
37200;BME280;23096;50.892;16.746;2023-05-08T01:55:04;100366.67;;;3.80;72.56
37200;BME280;23096;50.892;16.746;2023-05-08T01:57:36;100371.92;;;3.78;72.61
37200;BME280;23096;50.892;16.746;2023-05-08T02:00:05;100370.02;;;3.75;72.61
37200;BME280;23096;50.892;16.746;2023-05-08T02:02:41;100370.65;;;3.73;72.63
37200;BME280;23096;50.892;16.746;2023-05-08T02:05:09;100373.13;;;3.69;72.69
37200;BME280;23096;50.892;16.746;2023-05-08T02:07:35;100375.81;;;3.65;72.63
37200;BME280;23096;50.892;16.746;2023-05-08T02:10:05;100378.16;;;3.63;72.70
37200;BME280;23096;50.892;16.746;2023-05-08T02:12:32;100380.69;;;3.61;72.69
37200;BME280;23096;50.892;16.746;2023-05-08T02:14:59;100383.04;;;3.60;72.76
37200;BME280;23096;50.892;16.746;2023-05-08T02:17:27;100385.87;;;3.56;72.72
37200;BME280;23096;50.892;16.746;2023-05-08T02:19:57;100389.23;;;3.53;72.86
37200;BME280;23096;50.892;16.746;2023-05-08T02:22:24;100392.77;;;3.50;72.89
37200;BME280;23096;50.892;16.746;2023-05-08T02:24:52;100393.38;;;3.46;72.87
37200;BME280;23096;50.892;16.746;2023-05-08T02:27:25;100394.71;;;3.44;72.98
37200;BME280;23096;50.892;16.746;2023-05-08T02:29:52;100395.88;;;3.42;73.05
37200;BME280;23096;50.892;16.746;2023-05-08T02:32:19;100395.83;;;3.40;73.08
37200;BME280;23096;50.892;16.746;2023-05-08T02:34:49;100395.81;;;3.38;73.17
37200;BME280;23096;50.892;16.746;2023-05-08T02:37:18;100396.13;;;3.37;73.13
37200;BME280;23096;50.892;16.746;2023-05-08T02:39:46;100395.60;;;3.36;73.27
37200;BME280;23096;50.892;16.746;2023-05-08T02:42:12;100398.15;;;3.37;73.17
37200;BME280;23096;50.892;16.746;2023-05-08T02:44:38;100401.50;;;3.34;73.18
37200;BME280;23096;50.892;16.746;2023-05-08T02:49:53;100401.21;;;3.26;73.33
37200;BME280;23096;50.892;16.746;2023-05-08T02:52:28;100400.16;;;3.24;73.40
37200;BME280;23096;50.892;16.746;2023-05-08T03:00:41;100408.55;;;3.18;73.59
37200;BME280;23096;50.892;16.746;2023-05-08T03:03:18;100408.54;;;3.16;73.58
37200;BME280;23096;50.892;16.746;2023-05-08T03:05:56;100410.55;;;3.15;73.57
37200;BME280;23096;50.892;16.746;2023-05-08T03:08:29;100411.88;;;3.14;73.75
37200;BME280;23096;50.892;16.746;2023-05-08T03:10:58;100410.82;;;3.12;73.78
37200;BME280;23096;50.892;16.746;2023-05-08T03:13:28;100409.10;;;3.10;73.86
37200;BME280;23096;50.892;16.746;2023-05-08T03:16:03;100407.56;;;3.10;73.89
37200;BME280;23096;50.892;16.746;2023-05-08T03:18:33;100409.42;;;3.10;73.86
37200;BME280;23096;50.892;16.746;2023-05-08T03:21:03;100411.44;;;3.08;73.83
37200;BME280;23096;50.892;16.746;2023-05-08T03:23:32;100414.46;;;3.05;73.88
37200;BME280;23096;50.892;16.746;2023-05-08T03:25:59;100413.40;;;3.03;73.98
37200;BME280;23096;50.892;16.746;2023-05-08T03:28:26;100409.64;;;3.02;74.10
37200;BME280;23096;50.892;16.746;2023-05-08T03:30:54;100409.11;;;3.01;74.07
37200;BME280;23096;50.892;16.746;2023-05-08T03:33:22;100412.82;;;3.00;74.15
37200;BME280;23096;50.892;16.746;2023-05-08T03:35:48;100410.95;;;2.99;74.18
37200;BME280;23096;50.892;16.746;2023-05-08T03:38:14;100410.77;;;2.98;74.16
37200;BME280;23096;50.892;16.746;2023-05-08T03:40:41;100411.09;;;2.97;74.14
37200;BME280;23096;50.892;16.746;2023-05-08T03:43:08;100407.67;;;2.96;74.28
37200;BME280;23096;50.892;16.746;2023-05-08T03:45:35;100411.75;;;2.96;74.34
37200;BME280;23096;50.892;16.746;2023-05-08T03:48:04;100414.46;;;2.97;74.39
37200;BME280;23096;50.892;16.746;2023-05-08T03:50:31;100415.66;;;2.97;74.46
37200;BME280;23096;50.892;16.746;2023-05-08T03:52:58;100416.71;;;2.98;74.38
37200;BME280;23096;50.892;16.746;2023-05-08T03:55:25;100417.06;;;2.99;74.52
37200;BME280;23096;50.892;16.746;2023-05-08T04:06:16;100428.86;;;3.04;74.71
37200;BME280;23096;50.892;16.746;2023-05-08T04:08:54;100431.09;;;3.05;74.74
37200;BME280;23096;50.892;16.746;2023-05-08T04:11:31;100431.13;;;3.06;74.83
37200;BME280;23096;50.892;16.746;2023-05-08T04:14:02;100432.35;;;3.09;74.71
37200;BME280;23096;50.892;16.746;2023-05-08T04:16:34;100436.32;;;3.13;74.86
37200;BME280;23096;50.892;16.746;2023-05-08T04:19:08;100438.23;;;3.16;74.85
37200;BME280;23096;50.892;16.746;2023-05-08T04:21:35;100439.78;;;3.17;74.94
37200;BME280;23096;50.892;16.746;2023-05-08T04:24:06;100448.64;;;3.19;74.90
37200;BME280;23096;50.892;16.746;2023-05-08T04:26:33;100451.91;;;3.20;74.98
37200;BME280;23096;50.892;16.746;2023-05-08T04:28:59;100450.39;;;3.21;74.97
37200;BME280;23096;50.892;16.746;2023-05-08T04:31:26;100454.33;;;3.24;75.09
37200;BME280;23096;50.892;16.746;2023-05-08T04:33:53;100455.10;;;3.29;75.27
37200;BME280;23096;50.892;16.746;2023-05-08T04:36:18;100460.11;;;3.34;75.31
37200;BME280;23096;50.892;16.746;2023-05-08T04:38:44;100463.06;;;3.38;75.28
37200;BME280;23096;50.892;16.746;2023-05-08T04:41:10;100466.88;;;3.42;75.39
37200;BME280;23096;50.892;16.746;2023-05-08T04:43:36;100469.02;;;3.50;75.55
37200;BME280;23096;50.892;16.746;2023-05-08T04:46:03;100470.96;;;3.54;75.38
37200;BME280;23096;50.892;16.746;2023-05-08T04:48:30;100474.11;;;3.59;75.52
37200;BME280;23096;50.892;16.746;2023-05-08T04:50:59;100478.14;;;3.67;75.56
37200;BME280;23096;50.892;16.746;2023-05-08T04:53:25;100478.90;;;3.72;75.54
37200;BME280;23096;50.892;16.746;2023-05-08T04:55:52;100480.46;;;3.74;75.54
37200;BME280;23096;50.892;16.746;2023-05-08T04:58:17;100485.61;;;3.77;75.56
37200;BME280;23096;50.892;16.746;2023-05-08T05:00:43;100488.40;;;3.81;75.63
37200;BME280;23096;50.892;16.746;2023-05-08T05:03:09;100487.83;;;3.88;75.62
37200;BME280;23096;50.892;16.746;2023-05-08T05:05:34;100489.60;;;3.93;75.71
37200;BME280;23096;50.892;16.746;2023-05-08T05:08:00;100492.89;;;3.98;75.67
37200;BME280;23096;50.892;16.746;2023-05-08T05:10:26;100495.16;;;4.02;75.69
37200;BME280;23096;50.892;16.746;2023-05-08T05:12:52;100490.11;;;4.05;75.65
37200;BME280;23096;50.892;16.746;2023-05-08T05:15:17;100489.16;;;4.10;75.77
37200;BME280;23096;50.892;16.746;2023-05-08T05:17:43;100489.40;;;4.15;75.93
37200;BME280;23096;50.892;16.746;2023-05-08T05:20:09;100486.28;;;4.23;75.87
37200;BME280;23096;50.892;16.746;2023-05-08T05:22:36;100488.27;;;4.32;75.89
37200;BME280;23096;50.892;16.746;2023-05-08T05:25:01;100490.41;;;4.39;75.93
37200;BME280;23096;50.892;16.746;2023-05-08T05:27:27;100489.27;;;4.44;75.99
37200;BME280;23096;50.892;16.746;2023-05-08T05:29:52;100492.22;;;4.48;75.98
37200;BME280;23096;50.892;16.746;2023-05-08T05:32:18;100492.48;;;4.55;75.99
37200;BME280;23096;50.892;16.746;2023-05-08T05:34:45;100497.02;;;4.63;76.13
37200;BME280;23096;50.892;16.746;2023-05-08T05:37:11;100496.23;;;4.70;76.06
37200;BME280;23096;50.892;16.746;2023-05-08T05:39:36;100502.27;;;4.76;76.00
37200;BME280;23096;50.892;16.746;2023-05-08T05:42:03;100505.75;;;4.83;76.15
37200;BME280;23096;50.892;16.746;2023-05-08T05:44:29;100501.24;;;4.90;76.17
37200;BME280;23096;50.892;16.746;2023-05-08T05:46:54;100499.27;;;4.96;76.26
37200;BME280;23096;50.892;16.746;2023-05-08T05:49:20;100496.27;;;5.03;76.22
37200;BME280;23096;50.892;16.746;2023-05-08T05:51:45;100496.88;;;5.11;76.26
37200;BME280;23096;50.892;16.746;2023-05-08T05:54:11;100499.99;;;5.17;76.17
37200;BME280;23096;50.892;16.746;2023-05-08T05:56:36;100502.77;;;5.23;76.14
37200;BME280;23096;50.892;16.746;2023-05-08T05:59:02;100507.77;;;5.29;76.15
37200;BME280;23096;50.892;16.746;2023-05-08T06:01:28;100509.02;;;5.34;76.23
37200;BME280;23096;50.892;16.746;2023-05-08T06:03:54;100515.56;;;5.41;76.16
37200;BME280;23096;50.892;16.746;2023-05-08T06:06:20;100517.47;;;5.45;76.15
37200;BME280;23096;50.892;16.746;2023-05-08T06:08:46;100511.88;;;5.48;76.04
37200;BME280;23096;50.892;16.746;2023-05-08T06:11:12;100514.30;;;5.52;76.02
37200;BME280;23096;50.892;16.746;2023-05-08T06:13:39;100512.48;;;5.61;76.15
37200;BME280;23096;50.892;16.746;2023-05-08T06:16:06;100520.21;;;5.67;76.13
37200;BME280;23096;50.892;16.746;2023-05-08T06:18:32;100519.05;;;5.71;75.99
37200;BME280;23096;50.892;16.746;2023-05-08T06:20:59;100523.54;;;5.77;76.01
37200;BME280;23096;50.892;16.746;2023-05-08T06:23:25;100524.46;;;5.86;76.11
37200;BME280;23096;50.892;16.746;2023-05-08T06:25:51;100521.98;;;5.95;76.12
37200;BME280;23096;50.892;16.746;2023-05-08T06:28:17;100523.25;;;6.02;76.09
37200;BME280;23096;50.892;16.746;2023-05-08T06:30:43;100520.41;;;6.10;76.05
37200;BME280;23096;50.892;16.746;2023-05-08T06:33:08;100524.90;;;6.20;76.17
37200;BME280;23096;50.892;16.746;2023-05-08T06:35:34;100521.36;;;6.27;76.02
37200;BME280;23096;50.892;16.746;2023-05-08T06:37:59;100524.13;;;6.31;75.94
37200;BME280;23096;50.892;16.746;2023-05-08T06:40:26;100526.02;;;6.36;75.87
37200;BME280;23096;50.892;16.746;2023-05-08T06:42:51;100526.76;;;6.45;75.93
37200;BME280;23096;50.892;16.746;2023-05-08T06:45:17;100527.15;;;6.55;75.90
37200;BME280;23096;50.892;16.746;2023-05-08T06:47:42;100524.27;;;6.62;75.68
37200;BME280;23096;50.892;16.746;2023-05-08T06:50:08;100524.98;;;6.66;75.67
37200;BME280;23096;50.892;16.746;2023-05-08T06:52:34;100525.49;;;6.68;75.67
37200;BME280;23096;50.892;16.746;2023-05-08T06:54:59;100530.15;;;6.77;75.64
37200;BME280;23096;50.892;16.746;2023-05-08T06:57:25;100528.11;;;6.82;75.67
37200;BME280;23096;50.892;16.746;2023-05-08T06:59:52;100526.27;;;6.89;75.66
37200;BME280;23096;50.892;16.746;2023-05-08T07:02:18;100527.66;;;6.99;75.70
37200;BME280;23096;50.892;16.746;2023-05-08T07:04:43;100528.21;;;7.09;75.62
37200;BME280;23096;50.892;16.746;2023-05-08T07:07:09;100528.25;;;7.23;75.66
37200;BME280;23096;50.892;16.746;2023-05-08T07:09:35;100531.34;;;7.33;75.51
37200;BME280;23096;50.892;16.746;2023-05-08T07:12:01;100531.35;;;7.44;75.59
37200;BME280;23096;50.892;16.746;2023-05-08T07:14:26;100531.89;;;7.55;75.58
37200;BME280;23096;50.892;16.746;2023-05-08T07:16:53;100532.06;;;7.65;75.45
37200;BME280;23096;50.892;16.746;2023-05-08T07:19:18;100532.41;;;7.71;75.27
37200;BME280;23096;50.892;16.746;2023-05-08T07:21:44;100534.81;;;7.76;75.16
37200;BME280;23096;50.892;16.746;2023-05-08T07:24:10;100534.98;;;7.82;75.14
37200;BME280;23096;50.892;16.746;2023-05-08T07:26:38;100539.92;;;7.92;75.09
37200;BME280;23096;50.892;16.746;2023-05-08T07:29:04;100545.39;;;7.97;74.93
37200;BME280;23096;50.892;16.746;2023-05-08T07:31:29;100546.43;;;8.05;74.99
37200;BME280;23096;50.892;16.746;2023-05-08T07:33:55;100544.02;;;8.15;74.84
37200;BME280;23096;50.892;16.746;2023-05-08T07:36:20;100545.55;;;8.22;74.70
37200;BME280;23096;50.892;16.746;2023-05-08T07:38:47;100541.60;;;8.25;74.50
37200;BME280;23096;50.892;16.746;2023-05-08T07:41:12;100544.34;;;8.26;74.32
37200;BME280;23096;50.892;16.746;2023-05-08T07:43:37;100541.94;;;8.33;74.53
37200;BME280;23096;50.892;16.746;2023-05-08T07:46:04;100545.36;;;8.42;74.35
37200;BME280;23096;50.892;16.746;2023-05-08T07:48:29;100544.32;;;8.55;74.38
37200;BME280;23096;50.892;16.746;2023-05-08T07:50:55;100544.11;;;8.64;74.15
37200;BME280;23096;50.892;16.746;2023-05-08T07:53:20;100543.58;;;8.70;74.04
37200;BME280;23096;50.892;16.746;2023-05-08T07:55:46;100543.05;;;8.77;74.00
37200;BME280;23096;50.892;16.746;2023-05-08T07:58:12;100547.81;;;8.83;73.79
37200;BME280;23096;50.892;16.746;2023-05-08T08:00:37;100546.63;;;8.80;73.59
37200;BME280;23096;50.892;16.746;2023-05-08T08:03:05;100543.72;;;8.77;73.33
37200;BME280;23096;50.892;16.746;2023-05-08T08:05:31;100542.54;;;8.73;73.23
37200;BME280;23096;50.892;16.746;2023-05-08T08:07:57;100542.02;;;8.73;73.21
37200;BME280;23096;50.892;16.746;2023-05-08T08:10:22;100542.86;;;8.76;73.20
37200;BME280;23096;50.892;16.746;2023-05-08T08:12:48;100543.17;;;8.82;73.13
37200;BME280;23096;50.892;16.746;2023-05-08T08:15:13;100540.44;;;8.81;72.91
37200;BME280;23096;50.892;16.746;2023-05-08T08:17:39;100538.72;;;8.86;72.93
37200;BME280;23096;50.892;16.746;2023-05-08T08:20:05;100540.05;;;8.93;72.82
37200;BME280;23096;50.892;16.746;2023-05-08T08:22:31;100543.96;;;9.01;72.71
37200;BME280;23096;50.892;16.746;2023-05-08T08:24:56;100544.80;;;9.08;72.55
37200;BME280;23096;50.892;16.746;2023-05-08T08:27:22;100544.56;;;9.16;72.57
37200;BME280;23096;50.892;16.746;2023-05-08T08:29:47;100543.31;;;9.26;72.47
37200;BME280;23096;50.892;16.746;2023-05-08T08:32:13;100534.70;;;9.34;72.41
37200;BME280;23096;50.892;16.746;2023-05-08T08:34:38;100536.16;;;9.46;72.34
37200;BME280;23096;50.892;16.746;2023-05-08T08:37:04;100534.08;;;9.50;72.05
37200;BME280;23096;50.892;16.746;2023-05-08T08:39:32;100534.23;;;9.52;71.96
37200;BME280;23096;50.892;16.746;2023-05-08T08:41:58;100532.13;;;9.57;71.82
37200;BME280;23096;50.892;16.746;2023-05-08T08:44:24;100534.31;;;9.65;71.82
37200;BME280;23096;50.892;16.746;2023-05-08T08:46:50;100534.39;;;9.76;71.77
37200;BME280;23096;50.892;16.746;2023-05-08T08:49:46;100539.63;;;9.86;71.59
37200;BME280;23096;50.892;16.746;2023-05-08T08:52:25;100540.95;;;9.92;71.43
37200;BME280;23096;50.892;16.746;2023-05-08T08:54:51;100542.88;;;9.89;71.10
37200;BME280;23096;50.892;16.746;2023-05-08T08:57:18;100542.35;;;9.88;71.03
37200;BME280;23096;50.892;16.746;2023-05-08T08:59:45;100544.21;;;9.91;70.95
37200;BME280;23096;50.892;16.746;2023-05-08T09:02:12;100544.51;;;9.97;70.86
37200;BME280;23096;50.892;16.746;2023-05-08T09:04:42;100543.42;;;10.04;70.82
37200;BME280;23096;50.892;16.746;2023-05-08T09:07:08;100539.56;;;10.11;70.67
37200;BME280;23096;50.892;16.746;2023-05-08T09:09:35;100538.29;;;10.21;70.59
37200;BME280;23096;50.892;16.746;2023-05-08T09:12:05;100540.61;;;10.28;70.43
37200;BME280;23096;50.892;16.746;2023-05-08T09:14:31;100539.05;;;10.32;70.30
37200;BME280;23096;50.892;16.746;2023-05-08T09:16:57;100539.00;;;10.38;70.23
37200;BME280;23096;50.892;16.746;2023-05-08T09:19:22;100540.50;;;10.42;70.06
37200;BME280;23096;50.892;16.746;2023-05-08T09:21:49;100540.11;;;10.46;69.91
37200;BME280;23096;50.892;16.746;2023-05-08T09:24:15;100540.66;;;10.43;69.64
37200;BME280;23096;50.892;16.746;2023-05-08T09:26:41;100540.56;;;10.37;69.28
37200;BME280;23096;50.892;16.746;2023-05-08T09:31:43;100536.69;;;10.27;69.28
37200;BME280;23096;50.892;16.746;2023-05-08T09:34:11;100539.98;;;10.42;69.44
37200;BME280;23096;50.892;16.746;2023-05-08T09:36:47;100543.06;;;10.60;69.30
37200;BME280;23096;50.892;16.746;2023-05-08T09:39:23;100540.23;;;10.66;68.96
37200;BME280;23096;50.892;16.746;2023-05-08T09:41:56;100544.41;;;10.62;68.77
37200;BME280;23096;50.892;16.746;2023-05-08T09:44:23;100544.09;;;10.61;68.62
37200;BME280;23096;50.892;16.746;2023-05-08T09:46:48;100532.91;;;10.62;68.60
37200;BME280;23096;50.892;16.746;2023-05-08T09:49:18;100531.05;;;10.73;68.68
37200;BME280;23096;50.892;16.746;2023-05-08T09:51:51;100531.10;;;10.83;68.57
37200;BME280;23096;50.892;16.746;2023-05-08T09:54:18;100531.39;;;10.87;68.35
37200;BME280;23096;50.892;16.746;2023-05-08T09:56:44;100528.15;;;10.85;68.14
37200;BME280;23096;50.892;16.746;2023-05-08T09:59:22;100530.80;;;10.92;68.18
37200;BME280;23096;50.892;16.746;2023-05-08T10:01:48;100526.43;;;10.98;67.93
37200;BME280;23096;50.892;16.746;2023-05-08T10:04:14;100528.39;;;10.93;67.68
37200;BME280;23096;50.892;16.746;2023-05-08T10:06:40;100521.84;;;10.81;67.39
37200;BME280;23096;50.892;16.746;2023-05-08T10:09:12;100521.80;;;10.71;67.28
37200;BME280;23096;50.892;16.746;2023-05-08T10:11:50;100521.95;;;10.72;67.45
37200;BME280;23096;50.892;16.746;2023-05-08T10:14:17;100525.67;;;10.77;67.41
37200;BME280;23096;50.892;16.746;2023-05-08T10:16:46;100521.81;;;10.83;67.36
37200;BME280;23096;50.892;16.746;2023-05-08T10:19:16;100522.55;;;10.92;67.29
37200;BME280;23096;50.892;16.746;2023-05-08T10:21:46;100519.67;;;11.03;67.28
37200;BME280;23096;50.892;16.746;2023-05-08T10:24:15;100521.27;;;11.12;67.08
37200;BME280;23096;50.892;16.746;2023-05-08T10:27:09;100518.58;;;11.19;67.07
37200;BME280;23096;50.892;16.746;2023-05-08T10:29:51;100517.45;;;11.26;66.89
37200;BME280;23096;50.892;16.746;2023-05-08T10:32:18;100512.86;;;11.34;66.85
37200;BME280;23096;50.892;16.746;2023-05-08T10:34:47;100510.28;;;11.46;66.93
37200;BME280;23096;50.892;16.746;2023-05-08T10:37:14;100510.04;;;11.61;66.82
37200;BME280;23096;50.892;16.746;2023-05-08T10:39:41;100513.65;;;11.72;66.60
37200;BME280;23096;50.892;16.746;2023-05-08T10:42:10;100509.81;;;11.75;66.43
37200;BME280;23096;50.892;16.746;2023-05-08T10:44:38;100509.00;;;11.82;66.50
37200;BME280;23096;50.892;16.746;2023-05-08T10:47:08;100500.91;;;11.94;66.40
37200;BME280;23096;50.892;16.746;2023-05-08T10:50:05;100504.61;;;12.09;66.44
37200;BME280;23096;50.892;16.746;2023-05-08T11:03:25;100498.52;;;12.49;65.55
37200;BME280;23096;50.892;16.746;2023-05-08T11:05:52;100495.31;;;12.53;65.46
37200;BME280;23096;50.892;16.746;2023-05-08T11:08:20;100493.45;;;12.60;65.49
37200;BME280;23096;50.892;16.746;2023-05-08T11:13:34;100491.29;;;12.74;65.04
37200;BME280;23096;50.892;16.746;2023-05-08T11:16:01;100493.38;;;12.81;64.91
37200;BME280;23096;50.892;16.746;2023-05-08T11:18:27;100490.31;;;12.71;64.40
37200;BME280;23096;50.892;16.746;2023-05-08T11:20:59;100489.99;;;12.61;64.55
37200;BME280;23096;50.892;16.746;2023-05-08T11:23:29;100487.37;;;12.55;64.28
37200;BME280;23096;50.892;16.746;2023-05-08T11:26:03;100486.33;;;12.47;63.97
37200;BME280;23096;50.892;16.746;2023-05-08T11:31:18;100484.29;;;12.45;63.86
37200;BME280;23096;50.892;16.746;2023-05-08T11:33:43;100481.41;;;12.42;63.65
37200;BME280;23096;50.892;16.746;2023-05-08T11:38:40;100488.30;;;12.42;63.70
37200;BME280;23096;50.892;16.746;2023-05-08T11:41:20;100485.52;;;12.52;63.73
37200;BME280;23096;50.892;16.746;2023-05-08T11:46:19;100485.56;;;12.59;63.35
37200;BME280;23096;50.892;16.746;2023-05-08T11:48:45;100485.33;;;12.62;63.08
37200;BME280;23096;50.892;16.746;2023-05-08T11:51:10;100486.98;;;12.64;63.04
37200;BME280;23096;50.892;16.746;2023-05-08T11:53:38;100483.42;;;12.71;63.05
37200;BME280;23096;50.892;16.746;2023-05-08T11:56:04;100484.33;;;12.77;62.92
37200;BME280;23096;50.892;16.746;2023-05-08T11:58:30;100478.95;;;12.78;62.81
37200;BME280;23096;50.892;16.746;2023-05-08T12:00:56;100482.83;;;12.82;62.80
37200;BME280;23096;50.892;16.746;2023-05-08T12:03:22;100475.80;;;12.96;62.87
37200;BME280;23096;50.892;16.746;2023-05-08T12:05:50;100470.96;;;13.12;62.84
37200;BME280;23096;50.892;16.746;2023-05-08T12:08:16;100469.19;;;13.21;62.47
37200;BME280;23096;50.892;16.746;2023-05-08T12:13:25;100474.94;;;13.19;62.17
37200;BME280;23096;50.892;16.746;2023-05-08T12:16:00;100479.05;;;13.13;62.01
37200;BME280;23096;50.892;16.746;2023-05-08T12:18:26;100472.79;;;13.15;62.04
37200;BME280;23096;50.892;16.746;2023-05-08T12:20:56;100474.87;;;13.30;62.05
37200;BME280;23096;50.892;16.746;2023-05-08T12:23:27;100477.95;;;13.39;61.80
37200;BME280;23096;50.892;16.746;2023-05-08T12:25:54;100476.43;;;13.38;61.62
37200;BME280;23096;50.892;16.746;2023-05-08T12:28:23;100477.59;;;13.47;61.69
37200;BME280;23096;50.892;16.746;2023-05-08T12:30:48;100478.65;;;13.53;61.52
37200;BME280;23096;50.892;16.746;2023-05-08T12:33:14;100480.35;;;13.47;61.06
37200;BME280;23096;50.892;16.746;2023-05-08T12:35:40;100482.54;;;13.35;60.89
37200;BME280;23096;50.892;16.746;2023-05-08T12:38:07;100478.65;;;13.23;60.66
37200;BME280;23096;50.892;16.746;2023-05-08T12:40:38;100477.41;;;13.16;60.58
37200;BME280;23096;50.892;16.746;2023-05-08T12:43:04;100472.23;;;13.17;60.52
37200;BME280;23096;50.892;16.746;2023-05-08T12:45:32;100466.17;;;13.10;60.25
37200;BME280;23096;50.892;16.746;2023-05-08T12:48:02;100468.70;;;12.98;59.95
37200;BME280;23096;50.892;16.746;2023-05-08T12:50:36;100468.82;;;12.93;60.01
37200;BME280;23096;50.892;16.746;2023-05-08T12:53:03;100463.45;;;13.01;60.28
37200;BME280;23096;50.892;16.746;2023-05-08T12:55:30;100458.71;;;13.13;60.28
37200;BME280;23096;50.892;16.746;2023-05-08T12:58:03;100453.23;;;13.25;60.05
37200;BME280;23096;50.892;16.746;2023-05-08T13:00:40;100454.86;;;13.30;59.81
37200;BME280;23096;50.892;16.746;2023-05-08T13:03:07;100455.92;;;13.36;59.75
37200;BME280;23096;50.892;16.746;2023-05-08T13:05:34;100454.98;;;13.39;59.59
37200;BME280;23096;50.892;16.746;2023-05-08T13:08:05;100458.19;;;13.43;59.47
37200;BME280;23096;50.892;16.746;2023-05-08T13:10:50;100454.11;;;13.47;59.36
37200;BME280;23096;50.892;16.746;2023-05-08T13:13:18;100443.73;;;13.48;59.18
37200;BME280;23096;50.892;16.746;2023-05-08T13:15:44;100440.32;;;13.54;59.26
37200;BME280;23096;50.892;16.746;2023-05-08T13:18:10;100439.83;;;13.66;59.12
37200;BME280;23096;50.892;16.746;2023-05-08T13:20:36;100435.40;;;13.84;59.18
37200;BME280;23096;50.892;16.746;2023-05-08T13:23:03;100436.90;;;13.99;58.96
37200;BME280;23096;50.892;16.746;2023-05-08T13:25:29;100426.48;;;14.08;58.88
37200;BME280;23096;50.892;16.746;2023-05-08T13:27:54;100433.45;;;14.17;58.73
37200;BME280;23096;50.892;16.746;2023-05-08T13:30:20;100433.64;;;14.23;58.62
37200;BME280;23096;50.892;16.746;2023-05-08T13:32:49;100424.11;;;14.18;58.32
37200;BME280;23096;50.892;16.746;2023-05-08T13:35:15;100420.29;;;14.19;58.16
37200;BME280;23096;50.892;16.746;2023-05-08T13:37:41;100418.35;;;14.20;58.04
37200;BME280;23096;50.892;16.746;2023-05-08T13:40:07;100418.55;;;14.25;58.16
37200;BME280;23096;50.892;16.746;2023-05-08T13:42:33;100418.10;;;14.35;57.96
37200;BME280;23096;50.892;16.746;2023-05-08T13:44:58;100419.20;;;14.39;57.69
37200;BME280;23096;50.892;16.746;2023-05-08T13:47:24;100415.30;;;14.35;57.66
37200;BME280;23096;50.892;16.746;2023-05-08T13:49:50;100417.13;;;14.45;57.58